Time;durP1;ratioP1;P1;durP2;ratioP2;P2;SDS_P1;SDS_P2;PMS_P1;PMS_P2;Temp;Humidity;BMP_temperature;BMP_pressure;BME280_temperature;BME280_humidity;BME280_pressure;Samples;Min_cycle;Max_cycle;Signal;HPM_P1;HPM_P2
2022/05/25 00:00:07;;;;;;;;;;;17.20;88.50;17.30;99267.00;;;;341604;28;86976;-87
2022/05/25 00:00:19;;;;;;;;;;;17.10;88.50;17.30;99277.00;;;;340480;28;88504;-87
2022/05/25 00:00:31;;;;;;;;;;;17.10;88.60;17.40;99275.00;;;;337546;28;88430;-87
2022/05/25 00:00:42;;;;;;;;;;;17.20;89.20;17.30;99270.00;;;;338807;28;90646;-87
2022/05/25 00:00:56;;;;;;;;;;;17.20;88.60;17.30;99271.00;;;;339204;28;90219;-87
2022/05/25 00:01:08;;;;;;;;;;;17.20;88.60;17.30;99279.00;;;;337761;28;90828;-86
2022/05/25 00:01:20;;;;;;;;;;;17.20;88.50;17.40;99274.00;;;;339844;28;88098;-87
2022/05/25 00:01:32;;;;;;;;;;;17.10;88.50;17.40;99275.00;;;;340594;28;87726;-87
2022/05/25 00:01:44;;;;;;;;;;;17.20;88.50;17.50;99274.00;;;;338825;28;88213;-87
2022/05/25 00:01:56;;;;;;;;;;;17.20;88.80;17.40;99275.00;;;;339103;28;91298;-87
2022/05/25 00:02:08;;;;;;;;;;;17.20;88.70;17.40;99266.00;;;;340194;28;87404;-86
2022/05/25 00:02:20;;;;;;;;;;;17.20;88.60;17.40;99271.00;;;;340420;28;91155;-86
2022/05/25 00:02:32;;;;;;;;;;;17.20;88.50;17.40;99285.00;;;;340255;28;87312;-87
2022/05/25 00:02:44;;;;;;;;;;;17.20;88.60;17.40;99272.00;;;;340372;28;90217;-87
2022/05/25 00:02:56;;;;;;;;;;;17.20;88.80;17.40;99270.00;;;;341402;28;87756;-87
2022/05/25 00:03:08;;;;;;;;;;;17.20;88.80;17.40;99269.00;;;;345882;28;90260;-87
2022/05/25 00:03:20;;;;;;;;;;;17.20;88.80;17.40;99278.00;;;;344387;28;86152;-87
2022/05/25 00:03:33;;;;;;;;;;;17.20;88.90;17.40;99282.00;;;;341883;28;89888;-87
2022/05/25 00:03:44;;;;;;;;;;;17.10;88.70;17.30;99274.00;;;;341795;28;86245;-90
2022/05/25 00:03:56;;;;;;;;;;;17.20;88.80;17.20;99266.00;;;;341664;28;90482;-89
2022/05/25 00:04:09;;;;;;;;;;;17.20;88.90;17.30;99269.00;;;;341437;28;87271;-89
2022/05/25 00:04:21;;;;;;;;;;;17.10;88.80;17.20;99272.00;;;;339031;28;91132;-89
2022/05/25 00:04:33;;;;;;;;;;;17.10;88.80;17.20;99279.00;;;;341723;28;87276;-90
2022/05/25 00:04:45;;;;;;;;;;;17.20;89.10;17.10;99280.00;;;;343202;28;90526;-89
2022/05/25 00:04:56;;;;;;;;;;;17.10;89.00;17.10;99277.00;;;;338702;28;87001;-90
2022/05/25 00:05:09;;;;;;;;;;;17.10;89.00;17.20;99284.00;;;;343200;28;91154;-89
2022/05/25 00:05:21;;;;;;;;;;;17.10;89.10;17.20;99274.00;;;;341569;28;88136;-88
2022/05/25 00:05:33;;;;;;;;;;;17.10;89.10;17.20;99273.00;;;;343278;28;90477;-91
2022/05/25 00:05:45;;;;;;;;;;;17.10;89.10;17.20;99270.00;;;;342962;28;87397;-92
2022/05/25 00:05:58;;;;;;;;;;;17.00;89.10;17.10;99282.00;;;;341877;28;91315;-91
2022/05/25 00:06:10;;;;;;;;;;;17.00;89.10;17.10;99277.00;;;;343088;28;87030;-91
2022/05/25 00:06:22;;;;;;;;;;;17.00;89.10;17.20;99276.00;;;;341845;28;90998;-91
2022/05/25 00:06:34;;;;;;;;;;;17.00;89.10;17.10;99278.00;;;;344382;28;87105;-91
2022/05/25 00:06:46;;;;;;;;;;;17.00;89.30;17.10;99274.00;;;;342208;28;89702;-91
2022/05/25 00:06:58;;;;;;;;;;;17.00;89.30;17.10;99278.00;;;;339074;28;88286;-91
2022/05/25 00:07:11;;;;;;;;;;;17.00;89.30;17.10;99287.00;;;;341893;28;91334;-91
2022/05/25 00:07:23;;;;;;;;;;;17.00;89.10;17.10;99274.00;;;;340285;28;88019;-91
2022/05/25 00:07:35;;;;;;;;;;;17.00;89.10;17.20;99273.00;;;;339242;28;89180;-91
2022/05/25 00:07:47;;;;;;;;;;;17.00;89.10;17.10;99278.00;;;;341654;28;86244;-91
2022/05/25 00:07:59;;;;;;;;;;;17.00;89.20;17.10;99276.00;;;;341867;28;90879;-90
2022/05/25 00:08:13;;;;;;;;;;;17.00;89.10;17.20;99277.00;;;;341694;28;86970;-91
2022/05/25 00:08:25;;;;;;;;;;;17.00;89.10;17.20;99282.00;;;;339172;28;89550;-91
2022/05/25 00:08:37;;;;;;;;;;;17.00;89.20;17.10;99276.00;;;;340292;28;88036;-91
2022/05/25 00:08:49;;;;;;;;;;;17.00;89.30;17.20;99282.00;;;;340428;28;90159;-91
2022/05/25 00:09:01;;;;;;;;;;;17.00;89.30;17.30;99289.00;;;;340305;28;87413;-91
2022/05/25 00:09:13;;;;;;;;;;;17.00;89.20;17.20;99278.00;;;;341859;28;89847;-91
2022/05/25 00:09:25;;;;;;;;;;;17.00;89.40;17.20;99285.00;;;;340322;28;86880;-91
2022/05/25 00:09:38;;;;;;;;;;;17.00;89.50;17.20;99279.00;;;;340468;28;89617;-91
2022/05/25 00:09:50;;;;;;;;;;;17.00;89.50;17.10;99279.00;;;;341293;28;87170;-91
2022/05/25 00:10:03;;;;;;;;;;;17.00;89.40;17.10;99277.00;;;;341794;28;90818;-91
2022/05/25 00:10:15;;;;;;;;;;;17.00;89.40;17.20;99276.00;;;;340214;28;87066;-91
2022/05/25 00:10:26;;;;;;;;;;;17.00;89.40;17.20;99274.00;;;;336409;28;91466;-91
2022/05/25 00:10:39;;;;;;;;;;;17.00;89.40;17.20;99279.00;;;;341693;28;88597;-91
2022/05/25 00:10:50;;;;;;;;;;;17.00;89.60;17.20;99277.00;;;;341352;28;87331;-91
2022/05/25 00:11:02;;;;;;;;;;;17.00;89.60;17.20;99275.00;;;;339138;28;88746;-91
2022/05/25 00:11:14;;;;;;;;;;;17.00;89.70;17.10;99274.00;;;;340571;28;89616;-91
2022/05/25 00:11:26;;;;;;;;;;;17.00;89.70;17.20;99276.00;;;;339156;28;87211;-91
2022/05/25 00:11:38;;;;;;;;;;;17.00;89.50;17.20;99280.00;;;;340595;28;89042;-91
2022/05/25 00:11:49;;;;;;;;;;;17.00;89.60;17.00;99281.00;;;;341732;28;87033;-91
2022/05/25 00:12:01;;;;;;;;;;;17.00;89.60;16.90;99277.00;;;;342006;28;90664;-90
2022/05/25 00:12:13;;;;;;;;;;;16.90;89.40;16.90;99275.00;;;;340088;28;87019;-91
2022/05/25 00:12:25;;;;;;;;;;;16.90;89.40;17.00;99283.00;;;;337958;28;91059;-91
2022/05/25 00:12:38;;;;;;;;;;;16.90;89.30;17.10;99275.00;;;;339011;28;86842;-91
2022/05/25 00:12:50;;;;;;;;;;;16.90;89.40;17.20;99276.00;;;;344162;28;90789;-91
2022/05/25 00:13:02;;;;;;;;;;;16.90;89.60;17.20;99282.00;;;;343535;28;87145;-91
2022/05/25 00:13:13;;;;;;;;;;;16.90;89.60;17.20;99277.00;;;;341600;28;91085;-91
2022/05/25 00:13:25;;;;;;;;;;;16.90;89.60;17.20;99279.00;;;;339022;28;86767;-91
2022/05/25 00:13:37;;;;;;;;;;;17.00;89.60;17.20;99278.00;;;;341857;28;88875;-91
2022/05/25 00:13:49;;;;;;;;;;;17.00;89.60;17.20;99276.00;;;;340850;28;87928;-91
2022/05/25 00:14:02;;;;;;;;;;;17.00;89.50;17.20;99276.00;;;;340524;28;90246;-91
2022/05/25 00:14:13;;;;;;;;;;;17.00;89.50;17.30;99277.00;;;;338953;28;87006;-91
2022/05/25 00:14:25;;;;;;;;;;;17.00;89.60;17.30;99281.00;;;;337923;28;89602;-90
2022/05/25 00:14:37;;;;;;;;;;;17.00;89.60;17.30;99276.00;;;;341611;28;87019;-91
2022/05/25 00:14:49;;;;;;;;;;;17.00;89.60;17.30;99279.00;;;;339298;28;89628;-91
2022/05/25 00:15:01;;;;;;;;;;;17.00;89.50;17.30;99276.00;;;;338901;28;87012;-91
2022/05/25 00:15:13;;;;;;;;;;;17.00;89.70;17.30;99276.00;;;;339259;28;89734;-91
2022/05/25 00:15:25;;;;;;;;;;;17.00;89.80;17.20;99288.00;;;;339007;28;86764;-90
2022/05/25 00:15:37;;;;;;;;;;;17.00;89.70;17.30;99283.00;;;;337733;28;90086;-91
2022/05/25 00:15:49;;;;;;;;;;;17.00;89.50;17.30;99284.00;;;;338069;28;87976;-90
2022/05/25 00:16:01;;;;;;;;;;;17.10;89.40;17.30;99288.00;;;;341807;28;89676;-91
2022/05/25 00:16:13;;;;;;;;;;;17.10;89.30;17.30;99284.00;;;;340196;28;88034;-91
2022/05/25 00:16:25;;;;;;;;;;;17.10;89.20;17.30;99281.00;;;;339192;28;91125;-91
2022/05/25 00:16:37;;;;;;;;;;;17.10;89.20;17.30;99281.00;;;;341711;28;87644;-90
2022/05/25 00:16:49;;;;;;;;;;;17.00;89.00;17.30;99284.00;;;;338347;28;90423;-91
2022/05/25 00:17:01;;;;;;;;;;;17.10;89.10;17.40;99286.00;;;;339019;28;86154;-91
2022/05/25 00:17:13;;;;;;;;;;;17.10;89.10;17.40;99287.00;;;;340578;28;90291;-90
2022/05/25 00:17:25;;;;;;;;;;;17.10;89.10;17.40;99284.00;;;;339024;28;86731;-90
2022/05/25 00:17:37;;;;;;;;;;;17.10;89.00;17.40;99292.00;;;;340531;28;89105;-91
2022/05/25 00:17:50;;;;;;;;;;;17.10;88.90;17.30;99289.00;;;;338871;28;87837;-91
2022/05/25 00:18:02;;;;;;;;;;;17.10;89.00;17.20;99284.00;;;;340599;28;90102;-91
2022/05/25 00:18:14;;;;;;;;;;;17.10;89.20;17.10;99282.00;;;;338961;28;88407;-91
2022/05/25 00:18:26;;;;;;;;;;;17.10;89.20;17.20;99284.00;;;;337835;28;91294;-91
2022/05/25 00:19:58;;;;;;;;;;;17.10;89.20;17.10;99286.00;;;;338912;28;87047;-91
2022/05/25 00:19:59;;;;;;;;;;;17.10;89.20;17.30;99280.00;;;;340369;28;86773;-90
2022/05/25 00:20:11;;;;;;;;;;;17.10;89.10;17.20;99279.00;;;;339333;28;89651;-91
2022/05/25 00:20:23;;;;;;;;;;;17.10;89.20;17.20;99283.00;;;;338896;28;86917;-91
2022/05/25 00:20:35;;;;;;;;;;;17.10;89.10;17.20;99283.00;;;;341922;28;89915;-91
2022/05/25 00:20:47;;;;;;;;;;;17.10;89.00;17.20;99285.00;;;;337793;28;87757;-91
2022/05/25 00:20:59;;;;;;;;;;;17.10;89.00;17.20;99286.00;;;;339144;28;90019;-91
2022/05/25 00:21:10;;;;;;;;;;;17.10;89.00;17.20;99282.00;;;;341667;28;87259;-91
2022/05/25 00:21:22;;;;;;;;;;;17.10;89.00;17.20;99286.00;;;;339179;28;91189;-91
2022/05/25 00:21:34;;;;;;;;;;;17.10;89.00;17.20;99283.00;;;;341410;28;86945;-90
2022/05/25 00:21:46;;;;;;;;;;;17.10;89.00;17.20;99279.00;;;;339460;28;89670;-91
2022/05/25 00:21:58;;;;;;;;;;;17.10;89.10;17.30;99277.00;;;;341456;28;87573;-91
2022/05/25 00:22:09;;;;;;;;;;;17.10;89.00;17.30;99289.00;;;;343234;28;91134;-91
2022/05/25 00:22:21;;;;;;;;;;;17.10;89.00;17.30;99289.00;;;;338773;28;88411;-91
2022/05/25 00:22:45;;;;;;;;;;;17.10;89.00;17.30;99284.00;;;;337886;28;90357;-91
2022/05/25 00:22:57;;;;;;;;;;;17.10;89.10;17.30;99281.00;;;;336292;28;86951;-91
2022/05/25 00:23:08;;;;;;;;;;;17.10;89.30;17.30;99284.00;;;;335241;29;89544;-90
2022/05/25 00:23:20;;;;;;;;;;;17.10;89.40;17.30;99281.00;;;;337562;28;87750;-90
2022/05/25 00:23:32;;;;;;;;;;;17.10;89.20;17.20;99285.00;;;;340589;28;89779;-91
2022/05/25 00:23:44;;;;;;;;;;;17.10;89.20;17.20;99287.00;;;;338876;28;88053;-91
2022/05/25 00:23:56;;;;;;;;;;;17.10;89.20;17.20;99281.00;;;;340547;28;90915;-91
2022/05/25 00:24:07;;;;;;;;;;;17.10;89.20;17.20;99288.00;;;;343132;28;87232;-90
2022/05/25 00:24:20;;;;;;;;;;;17.10;89.20;17.30;99288.00;;;;339208;28;89186;-91
2022/05/25 00:24:32;;;;;;;;;;;17.10;89.20;17.30;99284.00;;;;340077;28;87169;-92
2022/05/25 00:24:43;;;;;;;;;;;17.10;89.20;17.10;99290.00;;;;341659;28;88650;-91
2022/05/25 00:24:57;;;;;;;;;;;17.10;89.20;17.10;99288.00;;;;341085;28;88036;-91
2022/05/25 00:25:14;;;;;;;;;;;17.00;89.10;17.20;99277.00;;;;340592;28;90764;-91
2022/05/25 00:25:30;;;;;;;;;;;17.00;89.10;17.20;99284.00;;;;341637;28;88219;-91
2022/05/25 00:25:41;;;;;;;;;;;17.10;89.30;17.10;99281.00;;;;339200;28;88412;-91
2022/05/25 00:25:53;;;;;;;;;;;17.10;89.30;17.10;99282.00;;;;338441;28;87690;-90
2022/05/25 00:26:05;;;;;;;;;;;17.00;89.20;17.20;99283.00;;;;341958;28;89676;-91
2022/05/25 00:26:17;;;;;;;;;;;17.00;89.20;17.20;99276.00;;;;340368;28;86793;-89
2022/05/25 00:26:28;;;;;;;;;;;17.00;89.40;17.20;99289.00;;;;340563;28;90403;-91
2022/05/25 00:26:40;;;;;;;;;;;17.00;89.40;17.10;99278.00;;;;343028;28;88226;-90
2022/05/25 00:26:52;;;;;;;;;;;17.10;89.40;17.20;99278.00;;;;340598;28;89944;-91
2022/05/25 00:27:04;;;;;;;;;;;17.00;89.10;17.30;99284.00;;;;342919;28;88178;-91
2022/05/25 00:27:17;;;;;;;;;;;17.10;89.20;17.20;99283.00;;;;341816;28;90736;-91
2022/05/25 00:27:29;;;;;;;;;;;17.00;89.20;17.30;99287.00;;;;340154;28;87616;-91
2022/05/25 00:27:41;;;;;;;;;;;17.10;89.30;17.30;99288.00;;;;343212;28;91019;-91
2022/05/25 00:27:53;;;;;;;;;;;17.10;89.30;17.30;99289.00;;;;337936;28;87087;-91
2022/05/25 00:28:07;;;;;;;;;;;17.10;89.30;17.30;99289.00;;;;340202;28;90905;-91
2022/05/25 00:28:19;;;;;;;;;;;17.10;89.30;17.30;99289.00;;;;340184;28;87966;-91
2022/05/25 00:28:30;;;;;;;;;;;17.10;89.30;17.30;99285.00;;;;337853;28;89572;-91
2022/05/25 00:28:42;;;;;;;;;;;17.10;89.20;17.30;99289.00;;;;341761;28;86914;-91
2022/05/25 00:28:54;;;;;;;;;;;17.10;89.30;17.30;99283.00;;;;340592;28;86555;-91
2022/05/25 00:29:06;;;;;;;;;;;17.10;89.20;17.30;99281.00;;;;338941;28;87101;-91
2022/05/25 00:29:17;;;;;;;;;;;17.10;89.20;17.40;99286.00;;;;339241;28;89688;-91
2022/05/25 00:29:30;;;;;;;;;;;17.10;89.30;17.30;99286.00;;;;337613;28;87068;-91
2022/05/25 00:29:41;;;;;;;;;;;17.10;89.40;17.10;99280.00;;;;339114;28;90926;-91
2022/05/25 00:29:53;;;;;;;;;;;17.10;89.20;17.00;99287.00;;;;342992;28;86943;-91
2022/05/25 00:30:06;;;;;;;;;;;17.10;89.20;17.00;99282.00;;;;339184;28;89761;-90
2022/05/25 00:30:18;;;;;;;;;;;17.00;89.00;16.90;99281.00;;;;338981;28;88194;-90
2022/05/25 00:30:30;;;;;;;;;;;17.00;89.00;17.00;99282.00;;;;340233;28;90921;-91
2022/05/25 00:30:43;;;;;;;;;;;17.00;89.00;17.00;99280.00;;;;340132;28;88047;-91
2022/05/25 00:30:55;;;;;;;;;;;17.00;89.00;16.90;99285.00;;;;339976;28;89941;-91
2022/05/25 00:31:08;;;;;;;;;;;17.00;88.90;16.90;99287.00;;;;337640;28;88012;-91
2022/05/25 00:31:20;;;;;;;;;;;16.90;88.90;16.80;99284.00;;;;339070;28;91080;-90
2022/05/25 00:31:32;;;;;;;;;;;16.90;89.10;16.80;99280.00;;;;343031;28;86112;-89
2022/05/25 00:31:44;;;;;;;;;;;16.90;89.10;16.90;99278.00;;;;341797;28;90744;-90
2022/05/25 00:31:56;;;;;;;;;;;16.90;89.10;17.00;99284.00;;;;341599;28;87949;-91
2022/05/25 00:32:08;;;;;;;;;;;16.90;89.20;17.00;99283.00;;;;341868;28;91318;-91
2022/05/25 00:32:22;;;;;;;;;;;16.90;89.40;17.10;99281.00;;;;343042;28;88327;-91
2022/05/25 00:32:34;;;;;;;;;;;16.90;89.50;17.10;99277.00;;;;339328;28;89704;-91
2022/05/25 00:32:46;;;;;;;;;;;16.90;89.40;17.10;99285.00;;;;339137;28;87767;-91
2022/05/25 00:32:58;;;;;;;;;;;16.90;89.60;17.00;99287.00;;;;340523;28;89985;-91
2022/05/25 00:33:11;;;;;;;;;;;16.90;89.40;17.10;99290.00;;;;340407;28;86198;-90
2022/05/25 00:33:23;;;;;;;;;;;16.90;89.30;17.00;99289.00;;;;340605;28;90621;-91
2022/05/25 00:33:34;;;;;;;;;;;16.90;89.30;16.90;99288.00;;;;338985;28;87756;-91
2022/05/25 00:33:46;;;;;;;;;;;16.90;89.90;16.90;99289.00;;;;339616;28;90883;-90
2022/05/25 00:33:58;;;;;;;;;;;16.90;89.30;17.00;99285.00;;;;342563;28;87076;-91
2022/05/25 00:34:10;;;;;;;;;;;16.90;89.30;17.00;99287.00;;;;341628;28;89372;-90
2022/05/25 00:34:22;;;;;;;;;;;16.80;89.40;17.00;99279.00;;;;340320;28;87104;-91
2022/05/25 00:34:34;;;;;;;;;;;16.90;89.30;17.00;99284.00;;;;340532;28;91337;-90
2022/05/25 00:34:45;;;;;;;;;;;16.90;89.30;17.00;99289.00;;;;339135;28;87773;-91
2022/05/25 00:34:57;;;;;;;;;;;16.90;89.30;17.00;99281.00;;;;340391;28;89766;-91
2022/05/25 00:35:12;;;;;;;;;;;16.90;90.00;17.00;99279.00;;;;340321;28;88682;-90
2022/05/25 00:35:25;;;;;;;;;;;16.90;89.40;17.00;99274.00;;;;341972;28;89746;-91
2022/05/25 00:35:37;;;;;;;;;;;16.90;89.40;17.00;99277.00;;;;338963;28;87338;-91
2022/05/25 00:35:49;;;;;;;;;;;16.90;89.40;17.00;99290.00;;;;341865;28;90314;-91
2022/05/25 00:36:01;;;;;;;;;;;16.90;89.60;17.00;99281.00;;;;340324;28;87152;-91
2022/05/25 00:36:12;;;;;;;;;;;16.80;89.50;17.00;99285.00;;;;340580;28;89604;-91
2022/05/25 00:36:24;;;;;;;;;;;16.90;89.50;17.10;99283.00;;;;341660;28;88313;-91
2022/05/25 00:36:36;;;;;;;;;;;16.80;89.50;17.10;99278.00;;;;341828;28;90524;-91
2022/05/25 00:36:48;;;;;;;;;;;16.90;89.60;17.00;99284.00;;;;337619;28;88713;-91
2022/05/25 00:37:00;;;;;;;;;;;16.90;89.80;17.10;99277.00;;;;339053;28;89184;-91
2022/05/25 00:37:12;;;;;;;;;;;16.90;89.80;17.10;99283.00;;;;341656;28;87069;-91
2022/05/25 00:37:24;;;;;;;;;;;16.90;89.70;17.10;99286.00;;;;339240;28;90548;-91
2022/05/25 00:37:36;;;;;;;;;;;16.90;89.60;17.10;99286.00;;;;338959;28;87981;-91
2022/05/25 00:37:47;;;;;;;;;;;16.90;89.60;17.00;99287.00;;;;339000;28;89359;-91
2022/05/25 00:37:59;;;;;;;;;;;16.90;89.60;17.00;99283.00;;;;338780;28;86952;-91
2022/05/25 00:38:11;;;;;;;;;;;16.90;89.60;17.00;99283.00;;;;340548;28;91085;-91
2022/05/25 00:38:23;;;;;;;;;;;16.90;89.50;17.10;99279.00;;;;338944;28;86872;-91
2022/05/25 00:38:35;;;;;;;;;;;16.90;89.50;17.00;99287.00;;;;340520;28;90547;-91
2022/05/25 00:38:46;;;;;;;;;;;16.90;89.70;17.00;99279.00;;;;343139;28;86942;-91
2022/05/25 00:38:58;;;;;;;;;;;16.90;89.70;17.10;99283.00;;;;340467;28;89369;-91
2022/05/25 00:39:10;;;;;;;;;;;16.90;89.80;17.10;99286.00;;;;341664;28;86902;-91
2022/05/25 00:39:23;;;;;;;;;;;16.90;89.70;17.10;99277.00;;;;343224;28;91066;-91
2022/05/25 00:39:37;;;;;;;;;;;16.90;89.70;17.00;99280.00;;;;338846;28;87683;-91
2022/05/25 00:39:49;;;;;;;;;;;16.90;89.70;17.00;99271.00;;;;341654;28;89451;-91
2022/05/25 00:40:03;;;;;;;;;;;16.90;89.70;16.90;99284.00;;;;340150;28;88869;-91
2022/05/25 00:40:27;;;;;;;;;;;16.80;89.80;17.00;99277.00;;;;340577;28;89678;-91
2022/05/25 00:40:41;;;;;;;;;;;16.90;89.80;17.10;99281.00;;;;341714;28;87235;-91
2022/05/25 00:40:52;;;;;;;;;;;16.90;89.80;17.10;99285.00;;;;340758;28;90353;-91
2022/05/25 00:41:04;;;;;;;;;;;16.90;90.00;17.00;99285.00;;;;340522;28;88208;-91
2022/05/25 00:41:16;;;;;;;;;;;16.90;90.00;17.10;99276.00;;;;342022;28;88873;-91
2022/05/25 00:41:31;;;;;;;;;;;16.90;89.90;17.10;99285.00;;;;341558;28;86951;-91
2022/05/25 00:41:43;;;;;;;;;;;16.90;90.00;17.20;99278.00;;;;340591;28;88430;-90
2022/05/25 00:41:55;;;;;;;;;;;16.90;90.00;17.10;99284.00;;;;340369;28;87967;-91
2022/05/25 00:42:07;;;;;;;;;;;16.90;90.00;17.20;99281.00;;;;341967;28;89796;-91
2022/05/25 00:42:20;;;;;;;;;;;16.90;90.00;17.10;99282.00;;;;340363;28;88356;-91
2022/05/25 00:42:35;;;;;;;;;;;16.90;90.00;17.00;99283.00;;;;338024;28;89754;-91
2022/05/25 00:42:47;;;;;;;;;;;16.90;89.80;16.90;99287.00;;;;340378;28;87289;-91
2022/05/25 00:42:59;;;;;;;;;;;16.90;90.00;16.80;99286.00;;;;344169;28;89987;-91
2022/05/25 00:43:14;;;;;;;;;;;16.90;90.00;16.90;99280.00;;;;341632;28;85281;-91
2022/05/25 00:43:26;;;;;;;;;;;16.80;90.00;16.90;99287.00;;;;337844;28;89301;-91
2022/05/25 00:43:38;;;;;;;;;;;16.80;90.00;16.80;99293.00;;;;337586;28;88832;-91
2022/05/25 00:43:50;;;;;;;;;;;16.80;90.00;16.90;99292.00;;;;341054;28;91299;-92
2022/05/25 00:44:02;;;;;;;;;;;16.80;90.00;16.80;99292.00;;;;340384;28;88072;-91
2022/05/25 00:44:14;;;;;;;;;;;16.80;90.00;16.90;99291.00;;;;341928;28;90535;-92
2022/05/25 00:44:25;;;;;;;;;;;16.80;90.00;17.00;99293.00;;;;340073;28;87080;-91
2022/05/25 00:44:37;;;;;;;;;;;16.80;90.10;17.00;99291.00;;;;340512;28;90799;-91
2022/05/25 00:44:49;;;;;;;;;;;16.80;90.10;17.00;99294.00;;;;341724;28;86853;-92
2022/05/25 00:45:02;;;;;;;;;;;16.80;90.10;17.00;99294.00;;;;341949;28;89320;-91
2022/05/25 00:45:14;;;;;;;;;;;16.80;90.10;17.00;99284.00;;;;339013;28;86835;-92
2022/05/25 00:45:26;;;;;;;;;;;16.80;90.20;17.10;99289.00;;;;340551;28;89934;-91
2022/05/25 00:45:48;;;;;;;;;;;16.80;90.10;16.90;99294.00;;;;340190;28;87633;-91
2022/05/25 00:46:02;;;;;;;;;;;16.80;90.10;16.90;99298.00;;;;339628;28;90778;-91
2022/05/25 00:46:15;;;;;;;;;;;16.80;90.10;17.00;99289.00;;;;338918;28;86733;-91
2022/05/25 00:46:27;;;;;;;;;;;16.80;90.10;17.00;99290.00;;;;340461;28;90061;-90
2022/05/25 00:46:40;;;;;;;;;;;16.80;90.10;17.00;99293.00;;;;338861;28;87054;-91
2022/05/25 00:46:51;;;;;;;;;;;16.80;90.10;17.00;99294.00;;;;340213;28;90624;-91
2022/05/25 00:47:03;;;;;;;;;;;16.80;90.00;17.00;99292.00;;;;338837;28;87047;-91
2022/05/25 00:47:20;;;;;;;;;;;16.80;90.00;17.00;99290.00;;;;340488;28;90856;-91
2022/05/25 00:47:31;;;;;;;;;;;16.80;90.00;16.90;99292.00;;;;341533;28;87007;-91
2022/05/25 00:47:45;;;;;;;;;;;16.80;90.00;16.80;99296.00;;;;343179;28;90230;-90
2022/05/25 00:47:56;;;;;;;;;;;16.80;90.00;16.90;99305.00;;;;340319;28;87028;-91
2022/05/25 00:48:09;;;;;;;;;;;16.80;90.00;17.00;99291.00;;;;339195;28;90554;-91
2022/05/25 00:48:48;;;;;;;;;;;16.80;90.00;16.80;99298.00;;;;341387;28;87693;-91
2022/05/25 00:49:03;;;;;;;;;;;16.80;90.20;16.90;99299.00;;;;337286;28;90746;-91
2022/05/25 00:49:17;;;;;;;;;;;16.80;90.00;16.90;99304.00;;;;337658;28;87854;-91
2022/05/25 00:49:31;;;;;;;;;;;16.80;90.10;17.00;99290.00;;;;339164;28;90748;-91
2022/05/25 00:49:42;;;;;;;;;;;16.80;90.10;16.90;99296.00;;;;340124;28;87671;-91
2022/05/25 00:49:55;;;;;;;;;;;16.80;90.10;16.90;99295.00;;;;339201;28;90763;-89
2022/05/25 00:50:09;;;;;;;;;;;16.80;90.10;16.90;99291.00;;;;337617;28;88099;-90
2022/05/25 00:50:22;;;;;;;;;;;16.80;90.10;16.90;99300.00;;;;340515;28;89724;-91
2022/05/25 00:51:12;;;;;;;;;;;16.80;90.00;16.90;99295.00;;;;339193;28;90876;-91
2022/05/25 00:51:30;;;;;;;;;;;16.80;90.00;16.90;99305.00;;;;340316;28;88221;-90
2022/05/25 00:51:44;;;;;;;;;;;16.80;89.80;16.90;99288.00;;;;341342;28;89747;-91
2022/05/25 00:51:58;;;;;;;;;;;16.80;89.70;16.90;99291.00;;;;339971;28;87121;-91
2022/05/25 00:52:11;;;;;;;;;;;16.80;89.60;16.90;99294.00;;;;339217;28;91423;-91
2022/05/25 00:52:23;;;;;;;;;;;16.80;89.60;16.90;99300.00;;;;340195;28;86985;-91
2022/05/25 00:52:35;;;;;;;;;;;16.80;89.50;16.90;99293.00;;;;340440;28;90692;-91
2022/05/25 00:52:47;;;;;;;;;;;16.80;89.60;16.90;99290.00;;;;337735;28;88674;-90
2022/05/25 00:52:59;;;;;;;;;;;16.80;89.50;16.90;99299.00;;;;339125;28;89853;-91
2022/05/25 00:53:11;;;;;;;;;;;16.80;89.50;16.90;99283.00;;;;341770;28;86792;-91
2022/05/25 00:53:23;;;;;;;;;;;16.80;89.70;16.90;99295.00;;;;340438;28;90796;-91
2022/05/25 00:53:34;;;;;;;;;;;16.80;89.80;16.90;99290.00;;;;341600;28;87662;-91
2022/05/25 00:54:01;;;;;;;;;;;16.80;89.80;16.90;99296.00;;;;339140;28;90528;-91
2022/05/25 00:54:23;;;;;;;;;;;16.80;89.70;16.90;99297.00;;;;339041;28;87020;-90
2022/05/25 00:54:47;;;;;;;;;;;16.80;89.90;16.90;99297.00;;;;341925;28;89618;-91
2022/05/25 00:55:04;;;;;;;;;;;16.80;89.90;16.90;99294.00;;;;340556;28;86575;-91
2022/05/25 00:55:20;;;;;;;;;;;16.80;90.00;16.80;99300.00;;;;341777;28;88709;-91
2022/05/25 00:55:32;;;;;;;;;;;16.80;89.90;16.90;99293.00;;;;341671;28;87648;-91
2022/05/25 00:55:43;;;;;;;;;;;16.70;89.70;16.90;99304.00;;;;340453;28;89901;-91
2022/05/25 00:55:55;;;;;;;;;;;16.80;89.70;16.90;99292.00;;;;341325;28;86966;-91
2022/05/25 00:56:08;;;;;;;;;;;16.80;89.80;16.90;99296.00;;;;339258;28;90531;-91
2022/05/25 00:56:20;;;;;;;;;;;16.80;89.90;16.90;99296.00;;;;337355;28;87798;-91
2022/05/25 00:56:33;;;;;;;;;;;16.70;89.90;16.80;99288.00;;;;343154;28;90575;-90
2022/05/25 00:56:45;;;;;;;;;;;16.70;90.00;16.70;99290.00;;;;336309;28;87105;-90
2022/05/25 00:57:01;;;;;;;;;;;16.70;90.20;16.70;99292.00;;;;339162;28;90258;-91
2022/05/25 00:57:25;;;;;;;;;;;16.70;90.00;16.70;99294.00;;;;340221;28;86847;-91
2022/05/25 00:57:39;;;;;;;;;;;16.70;89.90;16.80;99289.00;;;;339070;28;90681;-90
2022/05/25 00:57:50;;;;;;;;;;;16.70;90.00;16.70;99294.00;;;;341025;28;86967;-90
2022/05/25 00:58:02;;;;;;;;;;;16.60;90.00;16.70;99297.00;;;;340479;28;89472;-90
2022/05/25 00:58:14;;;;;;;;;;;16.60;89.90;16.60;99295.00;;;;338696;28;86873;-90
2022/05/25 00:58:26;;;;;;;;;;;16.60;90.00;16.70;99288.00;;;;339115;28;90704;-90
2022/05/25 00:58:37;;;;;;;;;;;16.60;90.00;16.80;99293.00;;;;338820;28;86975;-90
2022/05/25 00:59:11;;;;;;;;;;;16.60;89.90;16.80;99288.00;;;;339756;28;90070;-91
2022/05/25 00:59:31;;;;;;;;;;;16.60;90.00;16.90;99304.00;;;;338808;28;88284;-91
2022/05/25 01:00:07;;;;;;;;;;;16.60;90.00;16.90;99293.00;;;;340400;28;89746;-91
2022/05/25 01:00:21;;;;;;;;;;;16.60;90.10;16.90;99293.00;;;;340312;28;86588;-91
2022/05/25 01:00:32;;;;;;;;;;;16.70;90.00;16.90;99294.00;;;;337784;28;90860;-91
2022/05/25 01:00:44;;;;;;;;;;;16.70;90.00;16.90;99290.00;;;;337553;28;86606;-90
2022/05/25 01:00:56;;;;;;;;;;;16.70;90.00;16.80;99289.00;;;;340287;28;90233;-91
2022/05/25 01:01:08;;;;;;;;;;;16.70;90.00;16.90;99293.00;;;;340274;28;86786;-91
2022/05/25 01:01:20;;;;;;;;;;;16.70;90.00;16.90;99294.00;;;;340348;28;89420;-91
2022/05/25 01:01:32;;;;;;;;;;;16.70;90.00;16.90;99294.00;;;;336160;28;87025;-91
2022/05/25 01:01:44;;;;;;;;;;;16.70;90.00;16.80;99295.00;;;;336509;28;89754;-91
2022/05/25 01:01:56;;;;;;;;;;;16.70;90.00;16.70;99289.00;;;;340265;28;87261;-91
2022/05/25 01:02:08;;;;;;;;;;;16.70;89.90;16.60;99292.00;;;;339250;28;91141;-91
2022/05/25 01:02:19;;;;;;;;;;;16.60;89.80;16.70;99293.00;;;;337719;28;88030;-91
2022/05/25 01:02:33;;;;;;;;;;;16.60;89.80;16.70;99292.00;;;;339212;28;89604;-91
2022/05/25 01:02:48;;;;;;;;;;;16.60;90.00;16.80;99289.00;;;;339171;28;87769;-91
2022/05/25 01:03:11;;;;;;;;;;;16.60;90.00;16.80;99297.00;;;;343274;28;88829;-91
2022/05/25 01:03:22;;;;;;;;;;;16.60;90.00;16.80;99298.00;;;;337725;28;86952;-91
2022/05/25 01:03:34;;;;;;;;;;;16.60;90.10;16.80;99289.00;;;;339253;28;90851;-91
2022/05/25 01:03:46;;;;;;;;;;;16.60;90.10;16.80;99293.00;;;;341988;28;86896;-91
2022/05/25 01:03:58;;;;;;;;;;;16.60;90.10;16.90;99295.00;;;;341541;28;90791;-91
2022/05/25 01:04:09;;;;;;;;;;;16.60;90.10;16.80;99296.00;;;;341713;28;87905;-91
2022/05/25 01:04:21;;;;;;;;;;;16.70;90.10;16.90;99295.00;;;;344614;28;90718;-91
2022/05/25 01:04:33;;;;;;;;;;;16.70;90.10;16.80;99291.00;;;;340401;28;87745;-92
2022/05/25 01:04:47;;;;;;;;;;;16.60;90.10;16.80;99288.00;;;;340588;28;89814;-90
2022/05/25 01:04:59;;;;;;;;;;;16.70;90.20;16.80;99292.00;;;;338961;28;86848;-91
2022/05/25 01:05:11;;;;;;;;;;;16.70;90.20;16.80;99293.00;;;;340596;28;88644;-91
2022/05/25 01:05:34;;;;;;;;;;;16.70;90.20;16.80;99291.00;;;;342886;28;87673;-91